Time;durP1;ratioP1;P1;durP2;ratioP2;P2;SDS_P1;SDS_P2;PMS_P1;PMS_P2;Temp;Humidity;BMP_temperature;BMP_pressure;BME280_temperature;BME280_humidity;BME280_pressure;Samples;Min_cycle;Max_cycle;Signal;HPM_P1;HPM_P2
2022/01/26 00:05:52;;;;;;;;;36.20;33.80;;;;;5.56;61.24;102889.91;2104977;27;48029;-61
2022/01/26 00:06:53;;;;;;;;;37.80;33.40;;;;;5.54;60.96;102889.84;2113443;27;46941;-62
2022/01/26 00:07:53;;;;;;;;;31.50;29.50;;;;;5.55;61.34;102890.75;2112967;27;48272;-62
2022/01/26 00:08:54;;;;;;;;;39.00;37.00;;;;;5.54;60.90;102895.13;2105346;27;48330;-62
2022/01/26 00:09:54;;;;;;;;;40.00;34.00;;;;;5.54;60.92;102895.13;2105426;27;47331;-61
2022/01/26 00:10:55;;;;;;;;;33.25;30.00;;;;;5.55;61.05;102896.00;2105462;27;47265;-61
2022/01/26 00:11:56;;;;;;;;;32.75;32.75;;;;;5.55;61.19;102899.53;2104576;27;47742;-61
2022/01/26 00:12:59;;;;;;;;;38.00;33.75;;;;;5.54;61.07;102894.22;2105046;27;48214;-61
2022/01/26 00:14:02;;;;;;;;;39.00;34.60;;;;;5.55;61.06;102893.38;2105223;27;48135;-62
2022/01/26 00:15:02;;;;;;;;;43.20;37.20;;;;;5.55;61.15;102889.00;2104802;27;47144;-61
2022/01/26 00:16:07;;;;;;;;;37.50;32.50;;;;;5.55;60.97;102899.53;2096396;28;47325;-62
2022/01/26 00:17:10;;;;;;;;;37.60;32.00;;;;;5.56;61.03;102897.81;2104778;27;47173;-62
2022/01/26 00:18:10;;;;;;;;;44.00;38.80;;;;;5.56;61.36;102900.44;2105222;27;47595;-61
2022/01/26 00:19:19;;;;;;;;;37.00;34.50;;;;;5.57;61.24;102897.84;2105427;27;47018;-62
2022/01/26 00:20:25;;;;;;;;;39.60;34.00;;;;;5.57;61.02;102896.97;2104688;27;47987;-61
2022/01/26 00:21:30;;;;;;;;;36.80;34.60;;;;;5.57;61.33;102899.59;2104800;27;47246;-63
2022/01/26 00:25:20;;;;;;;;;35.20;31.60;;;;;5.57;61.38;102895.22;2105340;27;47431;-61
2022/01/26 00:27:32;;;;;;;;;33.20;32.00;;;;;5.57;60.85;102895.22;2105743;27;47614;-60
2022/01/26 00:29:17;;;;;;;;;42.80;35.40;;;;;5.57;61.17;102891.69;2105324;27;46463;-62
2022/01/26 00:31:12;;;;;;;;;35.40;33.20;;;;;5.55;60.91;102894.28;2096726;27;47426;-61
2022/01/26 00:39:14;;;;;;;;;45.60;35.60;;;;;5.55;61.08;102903.91;2104168;27;48297;-61
2022/01/26 00:41:34;;;;;;;;;37.00;29.40;;;;;5.57;61.15;102897.84;2105315;27;47508;-61
2022/01/26 00:42:38;;;;;;;;;38.20;36.00;;;;;5.57;61.52;102895.22;2105236;27;48171;-62
2022/01/26 00:43:48;;;;;;;;;36.40;33.00;;;;;5.56;61.06;102901.31;2106002;27;47221;-61
2022/01/26 00:44:50;;;;;;;;;42.00;34.60;;;;;5.58;61.10;102904.00;2104991;27;47398;-61
2022/01/26 00:45:55;;;;;;;;;43.40;37.20;;;;;5.56;60.84;102909.22;2105186;27;48024;-61
2022/01/26 00:46:56;;;;;;;;;39.40;36.00;;;;;5.55;61.56;102902.19;2105197;27;46669;-61
2022/01/26 00:47:57;;;;;;;;;35.75;35.00;;;;;5.55;61.56;102909.19;2104645;27;46165;-62
2022/01/26 00:48:57;;;;;;;;;39.00;33.50;;;;;5.56;61.55;102913.59;2104509;27;47402;-61
2022/01/26 00:50:02;;;;;;;;;42.50;37.25;;;;;5.53;61.19;102903.88;2105217;27;47176;-60
2022/01/26 00:51:06;;;;;;;;;41.00;37.00;;;;;5.54;61.56;102904.75;2104119;27;48036;-61
2022/01/26 00:52:11;;;;;;;;;41.20;33.40;;;;;5.52;61.41;102899.44;2104519;27;47593;-61
2022/01/26 00:53:12;;;;;;;;;35.00;32.00;;;;;5.52;61.00;102906.44;2099458;27;47448;-62
2022/01/26 00:54:15;;;;;;;;;43.75;35.50;;;;;5.52;61.17;102901.19;2105170;27;47978;-62
2022/01/26 00:55:17;;;;;;;;;41.20;35.80;;;;;5.51;61.37;102902.03;2105014;27;47596;-62
2022/01/26 00:56:17;;;;;;;;;27.00;25.80;;;;;5.52;61.07;102899.44;2103492;27;47663;-61
2022/01/26 00:57:18;;;;;;;;;37.25;32.25;;;;;5.51;61.22;102900.28;2102557;27;46758;-62
2022/01/26 00:58:19;;;;;;;;;32.20;32.20;;;;;5.50;61.12;102900.25;2104384;27;46086;-62
2022/01/26 00:59:20;;;;;;;;;40.75;32.75;;;;;5.51;61.67;102907.31;2105574;27;47190;-61
2022/01/26 01:00:26;;;;;;;;;34.25;32.50;;;;;5.49;61.20;102901.97;2105316;27;47192;-62
2022/01/26 01:01:31;;;;;;;;;36.00;34.20;;;;;5.48;61.41;102905.47;2105064;27;45466;-61
2022/01/26 01:02:33;;;;;;;;;38.00;35.80;;;;;5.49;61.51;102903.72;2105382;27;48368;-62
2022/01/26 01:03:36;;;;;;;;;35.40;32.40;;;;;5.48;61.33;102902.81;2105017;27;48321;-61
2022/01/26 01:04:37;;;;;;;;;40.60;37.40;;;;;5.46;61.32;102896.63;2105183;27;47336;-62
2022/01/26 01:05:45;;;;;;;;;38.75;36.25;;;;;5.45;61.55;102902.69;2105515;27;47331;-62
2022/01/26 01:06:54;;;;;;;;;31.20;28.40;;;;;5.45;61.78;102900.06;2105310;27;48385;-61
2022/01/26 01:08:02;;;;;;;;;34.80;32.80;;;;;5.45;61.25;102893.91;2104853;27;47848;-61
2022/01/26 01:09:03;;;;;;;;;35.40;32.60;;;;;5.43;61.65;102900.88;2105094;27;47809;-62
2022/01/26 01:10:05;;;;;;;;;35.00;29.50;;;;;5.43;61.31;102898.22;2105087;27;48165;-62
2022/01/26 01:11:06;;;;;;;;;40.00;33.40;;;;;5.42;61.80;102899.06;2104897;27;48315;-62
2022/01/26 01:12:07;;;;;;;;;34.20;34.20;;;;;5.40;61.81;102899.03;2104791;27;46966;-61
2022/01/26 01:13:13;;;;;;;;;35.25;34.75;;;;;5.40;61.50;102895.50;2104446;27;46770;-62
2022/01/26 01:14:14;;;;;;;;;37.40;33.20;;;;;5.40;61.29;102895.50;2100127;27;47495;-61
2022/01/26 01:15:15;;;;;;;;;34.25;31.25;;;;;5.39;61.49;102891.97;2105202;27;46127;-62
2022/01/26 01:16:20;;;;;;;;;34.80;31.80;;;;;5.38;61.65;102897.19;2104958;27;47472;-61
2022/01/26 01:17:25;;;;;;;;;39.00;34.80;;;;;5.39;61.71;102893.72;2105148;27;47380;-61
2022/01/26 01:19:32;;;;;;;;;31.25;29.25;;;;;5.39;61.47;102893.72;2104971;27;48163;-62
2022/01/26 01:30:21;;;;;;;;;29.80;26.20;;;;;5.37;61.45;102900.66;2104416;27;48441;-60
2022/01/26 01:32:51;;;;;;;;;37.00;29.20;;;;;5.35;61.77;102900.63;2105185;27;47582;-61
2022/01/26 01:33:52;;;;;;;;;31.60;30.20;;;;;5.35;62.14;102910.25;2104941;27;48075;-61
2022/01/26 01:34:52;;;;;;;;;32.25;29.00;;;;;5.35;61.78;102899.72;2104877;27;48309;-61
2022/01/26 01:35:53;;;;;;;;;33.50;32.25;;;;;5.35;61.73;102899.72;2105081;27;47989;-62
2022/01/26 01:36:55;;;;;;;;;38.25;30.25;;;;;5.36;62.01;102904.16;2105092;27;47346;-61
2022/01/26 01:37:55;;;;;;;;;38.40;33.00;;;;;5.35;62.09;102898.00;2104749;27;47436;-61
2022/01/26 01:38:57;;;;;;;;;34.50;28.00;;;;;5.36;61.81;102898.88;2104875;27;47070;-61
2022/01/26 01:39:57;;;;;;;;;33.60;27.80;;;;;5.35;61.60;102898.00;2104841;27;47192;-62
2022/01/26 01:40:58;;;;;;;;;34.25;30.75;;;;;5.35;61.67;102897.09;2104868;27;45762;-63
2022/01/26 01:41:58;;;;;;;;;37.50;34.50;;;;;5.35;61.44;102899.72;2104786;27;48430;-61
2022/01/26 01:42:58;;;;;;;;;37.25;32.25;;;;;5.36;61.92;102896.25;2104815;27;48483;-62
2022/01/26 01:43:59;;;;;;;;;41.25;36.00;;;;;5.36;61.57;102894.50;2104934;27;48430;-62
2022/01/26 01:45:00;;;;;;;;;31.00;30.75;;;;;5.35;61.79;102898.00;2104957;27;48283;-61
2022/01/26 01:46:01;;;;;;;;;54.25;45.25;;;;;5.35;61.85;102892.72;2104791;27;47233;-62
2022/01/26 01:47:05;;;;;;;;;85.80;72.60;;;;;5.35;62.29;102903.25;2104837;27;47092;-61
2022/01/26 01:48:05;;;;;;;;;74.40;55.80;;;;;5.37;62.25;102900.66;2097041;27;47178;-61
2022/01/26 01:49:06;;;;;;;;;61.00;49.50;;;;;5.36;62.17;102905.03;2101309;27;47205;-62
2022/01/26 01:50:11;;;;;;;;;50.25;40.00;;;;;5.37;62.03;102904.19;2103991;27;47556;-61
2022/01/26 01:51:15;;;;;;;;;40.60;35.00;;;;;5.37;61.79;102904.19;2104319;27;47563;-62
2022/01/26 01:52:16;;;;;;;;;32.20;29.20;;;;;5.38;61.68;102907.72;2104674;27;47172;-61
2022/01/26 01:53:18;;;;;;;;;37.40;31.40;;;;;5.37;61.72;102912.09;2104795;27;48325;-61
2022/01/26 01:54:19;;;;;;;;;43.80;34.60;;;;;5.37;62.01;102908.56;2103319;27;48370;-61
2022/01/26 01:55:25;;;;;;;;;31.00;29.80;;;;;5.37;62.08;102917.34;2105346;27;47253;-61
2022/01/26 01:56:26;;;;;;;;;36.60;32.20;;;;;5.36;61.64;102914.69;2106464;27;46972;-62
2022/01/26 01:57:27;;;;;;;;;33.00;32.00;;;;;5.36;61.70;102912.03;2106434;27;46866;-61
2022/01/26 01:58:28;;;;;;;;;28.25;25.75;;;;;5.36;61.68;102912.94;2106339;27;47031;-61
2022/01/26 01:59:32;;;;;;;;;33.00;33.00;;;;;5.36;62.07;102912.94;2106281;27;48433;-61
2022/01/26 02:00:33;;;;;;;;;31.60;28.20;;;;;5.35;62.02;102905.88;2106259;27;48414;-61
2022/01/26 02:01:33;;;;;;;;;29.50;28.25;;;;;5.36;61.83;102915.56;2113879;27;48304;-61
2022/01/26 02:02:34;;;;;;;;;32.00;31.00;;;;;5.36;61.62;102910.31;2114098;27;47371;-62
2022/01/26 02:03:35;;;;;;;;;37.50;32.75;;;;;5.36;62.01;102917.31;2106077;27;47566;-61
2022/01/26 02:04:35;;;;;;;;;29.75;28.50;;;;;5.36;61.48;102920.84;2102213;27;48132;-61
2022/01/26 02:05:35;;;;;;;;;33.00;27.00;;;;;5.35;61.54;102913.78;2104649;27;46337;-61
2022/01/26 02:06:36;;;;;;;;;34.75;30.00;;;;;5.35;61.42;102913.78;2106112;27;48145;-60
2022/01/26 02:07:36;;;;;;;;;35.00;30.00;;;;;5.34;61.53;102906.72;2106012;27;47298;-60
2022/01/26 02:08:40;;;;;;;;;31.25;29.25;;;;;5.35;61.61;102916.41;2106247;27;47189;-61
2022/01/26 02:09:40;;;;;;;;;31.00;28.40;;;;;5.34;61.74;102921.63;2106323;27;47513;-62
2022/01/26 02:10:42;;;;;;;;;32.25;31.25;;;;;5.34;61.84;102916.38;2106257;27;47317;-62
2022/01/26 02:11:47;;;;;;;;;34.00;32.00;;;;;5.36;61.60;102922.56;2104664;27;47451;-62
2022/01/26 02:12:51;;;;;;;;;33.80;33.00;;;;;5.35;61.34;102912.88;2106349;27;48675;-61
2022/01/26 02:14:01;;;;;;;;;26.00;24.80;;;;;5.36;61.60;102912.03;2106423;27;47923;-62
2022/01/26 02:15:09;;;;;;;;;39.40;32.20;;;;;5.35;61.49;102916.41;2114076;27;47236;-62
2022/01/26 02:16:19;;;;;;;;;26.00;24.60;;;;;5.34;61.49;102912.00;2113160;27;48288;-61
2022/01/26 02:53:46;;;;;;;;;25.40;24.20;;;;;5.46;61.38;102911.50;2100543;27;46944;-61
2022/01/26 02:55:04;;;;;;;;;25.40;25.20;;;;;5.46;61.02;102912.41;2105821;27;48394;-61
2022/01/26 02:56:10;;;;;;;;;25.00;25.00;;;;;5.46;61.05;102907.16;2097798;27;48406;-61
2022/01/26 03:01:31;;;;;;;;;33.60;31.20;;;;;5.49;61.52;102898.47;2105937;27;47446;-61
2022/01/26 03:03:37;;;;;;;;;27.50;27.00;;;;;5.48;61.38;102897.56;2105869;27;47974;-61
2022/01/26 03:04:45;;;;;;;;;31.60;28.80;;;;;5.48;61.51;102897.56;2105415;27;48380;-61
2022/01/26 03:05:55;;;;;;;;;33.20;32.20;;;;;5.49;61.32;102898.47;2105612;27;48298;-61
2022/01/26 03:08:14;;;;;;;;;33.00;30.40;;;;;5.49;61.42;102895.81;2105720;27;47402;-62
2022/01/26 03:09:19;;;;;;;;;27.50;25.25;;;;;5.50;61.03;102887.97;2105365;27;48030;-61
2022/01/26 03:10:33;;;;;;;;;30.00;23.60;;;;;5.50;61.56;102889.72;2105193;27;48201;-62
2022/01/26 03:11:36;;;;;;;;;36.60;25.20;;;;;5.49;61.49;102891.44;2105549;27;46149;-62
2022/01/26 03:12:46;;;;;;;;;28.20;25.00;;;;;5.49;61.15;102891.44;2104644;27;48308;-62
2022/01/26 03:13:53;;;;;;;;;32.20;30.20;;;;;5.51;61.62;102886.22;2105868;27;47270;-63
2022/01/26 03:14:58;;;;;;;;;31.60;28.20;;;;;5.52;61.31;102885.38;2105817;27;48402;-62
2022/01/26 03:16:06;;;;;;;;;30.20;25.80;;;;;5.51;61.29;102888.88;2106018;27;48909;-62
2022/01/26 03:17:18;;;;;;;;;30.80;29.60;;;;;5.53;61.21;102893.34;2106075;27;47011;-61
2022/01/26 03:20:34;;;;;;;;;33.40;30.40;;;;;5.55;61.50;102888.13;2102071;27;47550;-60
2022/01/26 03:21:48;;;;;;;;;35.60;30.40;;;;;5.56;61.23;102889.91;2105780;27;46952;-61
2022/01/26 03:28:16;;;;;;;;;30.60;27.80;;;;;5.57;61.39;102889.94;2101166;27;47494;-61
2022/01/26 03:29:39;;;;;;;;;29.40;26.20;;;;;5.59;61.24;102890.03;2098802;27;47174;-62
2022/01/26 03:34:17;;;;;;;;;37.40;31.60;;;;;5.58;61.26;102882.94;2097218;27;47247;-61
2022/01/26 03:37:00;;;;;;;;;39.20;35.00;;;;;5.58;61.58;102873.31;2087584;28;47441;-62
2022/01/26 03:38:00;;;;;;;;;33.60;29.80;;;;;5.58;61.29;102875.94;2103506;27;46049;-62
2022/01/26 03:39:08;;;;;;;;;38.25;32.75;;;;;5.58;61.20;102870.66;2105169;27;47753;-61
2022/01/26 03:40:14;;;;;;;;;32.00;30.00;;;;;5.59;61.17;102876.84;2105065;27;48123;-60
2022/01/26 03:42:19;;;;;;;;;39.80;35.40;;;;;5.59;61.46;102872.47;2105522;27;47963;-61
2022/01/26 03:43:19;;;;;;;;;29.50;26.50;;;;;5.60;60.86;102871.63;2105815;27;47275;-61
2022/01/26 03:44:19;;;;;;;;;39.25;36.50;;;;;5.60;61.21;102879.53;2105570;27;48435;-62
2022/01/26 03:45:20;;;;;;;;;33.25;29.75;;;;;5.60;60.80;102874.28;2105202;27;46281;-61
2022/01/26 03:46:20;;;;;;;;;42.00;35.50;;;;;5.61;60.90;102876.06;2102797;27;47373;-61
2022/01/26 03:47:21;;;;;;;;;36.75;35.25;;;;;5.60;61.33;102879.53;2100600;27;47097;-62
2022/01/26 03:48:21;;;;;;;;;35.25;33.25;;;;;5.62;61.01;102882.22;2105530;27;47093;-61
2022/01/26 03:49:22;;;;;;;;;29.75;27.25;;;;;5.61;60.93;102881.31;2105607;27;48203;-62
2022/01/26 03:50:23;;;;;;;;;36.00;32.00;;;;;5.61;61.36;102880.44;2105398;27;47542;-61
2022/01/26 03:51:24;;;;;;;;;33.60;32.00;;;;;5.61;61.10;102873.44;2105724;27;47291;-61
2022/01/26 03:52:24;;;;;;;;;33.00;31.00;;;;;5.61;60.95;102883.06;2105471;27;46912;-61
2022/01/26 03:53:25;;;;;;;;;31.75;31.75;;;;;5.63;61.25;102880.47;2105027;27;48048;-61
2022/01/26 03:54:25;;;;;;;;;33.75;30.75;;;;;5.61;60.79;102881.31;2104845;27;47584;-61
2022/01/26 03:55:26;;;;;;;;;25.50;23.75;;;;;5.61;60.88;102886.59;2105347;27;46788;-61
2022/01/26 03:56:26;;;;;;;;;32.50;32.25;;;;;5.62;61.38;102890.13;2105308;27;46217;-61
2022/01/26 03:57:27;;;;;;;;;33.25;32.00;;;;;5.61;60.83;102883.97;2105523;27;47393;-61
2022/01/26 03:58:27;;;;;;;;;39.25;35.75;;;;;5.63;60.84;102878.75;2105863;27;48347;-61
2022/01/26 03:59:28;;;;;;;;;39.75;35.50;;;;;5.66;60.89;102885.84;2107081;27;47353;-61
2022/01/26 04:00:28;;;;;;;;;40.75;31.25;;;;;5.66;60.94;102880.56;2112332;27;47743;-62
2022/01/26 04:01:29;;;;;;;;;33.00;29.75;;;;;5.67;61.21;102879.72;2113182;27;47695;-61
2022/01/26 04:02:29;;;;;;;;;36.75;32.75;;;;;5.67;61.29;102880.63;2113239;27;47064;-60
2022/01/26 04:03:29;;;;;;;;;36.00;32.50;;;;;5.68;61.18;102881.50;2102120;27;47343;-60
2022/01/26 04:04:41;;;;;;;;;35.25;33.75;;;;;5.69;61.18;102878.94;2113416;27;46428;-61
2022/01/26 04:05:42;;;;;;;;;35.60;32.20;;;;;5.70;61.12;102880.72;2112019;27;48552;-61
2022/01/26 04:06:42;;;;;;;;;36.80;31.60;;;;;5.71;60.94;102876.34;2113417;27;47885;-61
2022/01/26 04:07:44;;;;;;;;;32.00;30.50;;;;;5.71;61.17;102878.97;2113070;27;48655;-61
2022/01/26 04:08:46;;;;;;;;;44.60;34.80;;;;;5.70;60.81;102872.81;2105555;27;47967;-61
2022/01/26 04:09:46;;;;;;;;;34.00;32.00;;;;;5.72;61.00;102880.78;2105505;27;47685;-61
2022/01/26 04:11:50;;;;;;;;;36.40;32.40;;;;;5.73;61.04;102886.09;2105164;27;48076;-61
2022/01/26 04:12:50;;;;;;;;;45.20;38.40;;;;;5.74;60.78;102876.47;2105611;27;47266;-61
2022/01/26 04:13:51;;;;;;;;;32.50;25.75;;;;;5.74;61.00;102876.47;2105336;27;47123;-61
2022/01/26 04:14:58;;;;;;;;;39.40;37.00;;;;;5.74;60.92;102874.72;2105340;27;47157;-62
2022/01/26 04:15:58;;;;;;;;;40.20;36.20;;;;;5.76;61.22;102874.78;2105455;27;47878;-61
2022/01/26 04:16:59;;;;;;;;;38.50;34.00;;;;;5.76;60.89;102874.78;2104703;27;47740;-62
2022/01/26 04:18:01;;;;;;;;;41.50;37.75;;;;;5.77;61.07;102871.28;2104777;27;47239;-61
2022/01/26 04:19:03;;;;;;;;;40.60;37.60;;;;;5.77;60.89;102879.19;2100677;27;47397;-61
2022/01/26 04:20:04;;;;;;;;;36.80;33.60;;;;;5.77;60.60;102868.66;2105261;27;48320;-61
2022/01/26 04:21:22;;;;;;;;;39.00;35.00;;;;;5.78;60.51;102866.06;2104677;27;47484;-61
2022/01/26 04:22:30;;;;;;;;;39.60;36.80;;;;;5.78;60.63;102866.06;2105368;27;46409;-61
2022/01/26 04:23:43;;;;;;;;;37.20;34.20;;;;;5.79;60.98;102861.69;2105004;27;47576;-61
2022/01/26 04:24:50;;;;;;;;;32.40;32.40;;;;;5.78;60.55;102860.78;2113355;27;47698;-62
2022/01/26 04:25:52;;;;;;;;;41.40;35.60;;;;;5.80;60.94;102867.00;2112240;27;48256;-61
2022/01/26 04:27:08;;;;;;;;;33.80;30.00;;;;;5.81;60.31;102874.06;2104629;27;46968;-61
2022/01/26 04:28:13;;;;;;;;;40.60;36.20;;;;;5.81;60.81;102875.78;2104855;27;48567;-61
2022/01/26 04:29:26;;;;;;;;;42.40;38.40;;;;;5.80;60.53;102869.63;2105397;27;48154;-61
2022/01/26 04:30:26;;;;;;;;;46.20;37.60;;;;;5.80;60.59;102869.63;2105410;27;48309;-60
2022/01/26 04:31:27;;;;;;;;;44.75;37.75;;;;;5.80;60.75;102871.38;2105374;27;47163;-60
2022/01/26 04:32:27;;;;;;;;;50.50;42.00;;;;;5.79;60.58;102870.47;2105213;27;47177;-61
2022/01/26 04:33:32;;;;;;;;;45.50;38.25;;;;;5.80;60.23;102868.75;2105023;27;48403;-60
2022/01/26 04:34:33;;;;;;;;;37.60;33.80;;;;;5.79;60.36;102873.13;2105340;27;47701;-61
2022/01/26 04:35:34;;;;;;;;;44.40;35.20;;;;;5.80;60.38;102871.38;2105333;27;47151;-61
2022/01/26 04:36:48;;;;;;;;;44.00;38.40;;;;;5.80;60.50;102868.75;2105241;27;47230;-61
2022/01/26 04:38:17;;;;;;;;;34.80;34.60;;;;;5.81;60.42;102865.25;2102924;27;48287;-61
2022/01/26 04:39:14;;;;;;;;;40.80;29.20;;;;;5.82;60.44;102864.41;2105143;27;48346;-61
2022/01/26 04:40:16;;;;;;;;;43.40;37.80;;;;;5.82;60.37;102870.56;2105084;27;47461;-62
2022/01/26 04:41:35;;;;;;;;;45.80;37.40;;;;;5.83;60.20;102864.47;2105025;27;47428;-61
2022/01/26 04:42:50;;;;;;;;;46.40;39.40;;;;;5.83;60.16;102867.09;2102097;27;47117;-61
2022/01/26 04:43:55;;;;;;;;;49.80;39.00;;;;;5.85;60.75;102869.81;2108730;27;47322;-61
2022/01/26 04:45:02;;;;;;;;;49.80;39.20;;;;;5.85;60.12;102867.16;2108748;27;47245;-61
2022/01/26 04:46:03;;;;;;;;;8.60;6.80;;;;;5.85;60.52;102861.91;2113252;27;46901;-61
2022/01/26 04:47:03;;;;;;;;;48.75;39.75;;;;;5.84;60.06;102850.47;2113073;27;48267;-61
2022/01/26 04:48:04;;;;;;;;;54.75;40.00;;;;;5.85;60.01;102862.78;2105110;27;48189;-60
2022/01/26 04:49:04;;;;;;;;;49.50;40.25;;;;;5.84;60.40;102861.00;2105233;27;47055;-60
2022/01/26 04:50:08;;;;;;;;;48.50;40.50;;;;;5.85;59.82;102860.16;2104525;27;46987;-61
2022/01/26 04:51:08;;;;;;;;;41.60;38.40;;;;;5.86;60.16;102863.69;2105137;27;47496;-61
2022/01/26 04:52:09;;;;;;;;;38.50;33.25;;;;;5.85;60.46;102859.25;2105254;27;47139;-61
2022/01/26 04:53:09;;;;;;;;;31.25;30.75;;;;;5.87;60.21;102863.72;2104793;27;48305;-61
2022/01/26 04:54:10;;;;;;;;;50.00;42.00;;;;;5.87;60.38;102868.09;2103914;27;47297;-62
2022/01/26 04:55:11;;;;;;;;;48.40;40.60;;;;;5.88;60.20;102862.88;2104936;27;47297;-61
2022/01/26 04:56:13;;;;;;;;;46.00;41.75;;;;;5.87;60.36;102863.72;2105061;27;47369;-61
2022/01/26 04:57:14;;;;;;;;;40.80;38.00;;;;;5.89;60.08;102859.41;2105139;27;47240;-61
2022/01/26 04:58:14;;;;;;;;;40.50;37.25;;;;;5.88;60.12;102859.34;2105109;27;47882;-61
2022/01/26 04:59:15;;;;;;;;;43.50;39.50;;;;;5.88;60.58;102868.16;2104845;27;47444;-61
2022/01/26 05:00:16;;;;;;;;;51.00;40.75;;;;;5.89;59.88;102856.75;2102653;27;48174;-61
2022/01/26 05:01:16;;;;;;;;;43.80;36.60;;;;;5.88;60.44;102856.72;2100881;27;48377;-62
2022/01/26 05:02:17;;;;;;;;;49.25;42.00;;;;;5.88;60.23;102849.72;2105198;27;47121;-61
2022/01/26 05:03:17;;;;;;;;;40.50;36.75;;;;;5.88;59.97;102852.34;2105174;27;48226;-62
2022/01/26 05:04:18;;;;;;;;;42.50;36.25;;;;;5.89;60.41;102851.50;2105277;27;47333;-61
2022/01/26 05:05:18;;;;;;;;;48.50;38.50;;;;;5.89;59.74;102859.41;2113044;27;47037;-61
2022/01/26 05:06:19;;;;;;;;;51.50;41.50;;;;;5.89;60.01;102859.41;2104612;27;47767;-61
2022/01/26 05:07:19;;;;;;;;;54.00;38.50;;;;;5.89;59.99;102864.66;2104375;27;47190;-61
2022/01/26 05:08:19;;;;;;;;;46.00;38.00;;;;;5.90;59.84;102865.59;2104884;27;46315;-61
2022/01/26 05:09:21;;;;;;;;;50.25;41.50;;;;;5.88;59.69;102859.34;2105293;27;47155;-61
2022/01/26 05:10:22;;;;;;;;;46.00;39.20;;;;;5.88;59.78;102862.88;2105089;27;47480;-60
2022/01/26 05:11:32;;;;;;;;;43.20;37.20;;;;;5.89;59.72;102855.88;2103131;27;48140;-61
2022/01/26 05:12:34;;;;;;;;;49.00;40.80;;;;;5.88;59.83;102860.25;2096674;27;48306;-62
2022/01/26 05:13:35;;;;;;;;;33.80;32.80;;;;;5.88;59.67;102862.88;2102130;27;47528;-61
2022/01/26 05:14:35;;;;;;;;;48.25;40.00;;;;;5.88;60.14;102857.63;2105078;27;48341;-61
2022/01/26 05:15:36;;;;;;;;;51.00;40.00;;;;;5.89;59.55;102855.88;2104932;27;47449;-62
2022/01/26 05:16:36;;;;;;;;;64.75;52.00;;;;;5.89;59.91;102859.41;2105050;27;47459;-61
2022/01/26 05:17:38;;;;;;;;;69.25;54.25;;;;;5.89;59.67;102859.41;2105187;27;47113;-60
2022/01/26 05:18:38;;;;;;;;;63.60;49.80;;;;;5.91;60.09;102859.47;2105022;27;46271;-61
2022/01/26 05:19:39;;;;;;;;;57.75;48.50;;;;;5.91;59.63;102859.47;2104995;27;47414;-62
2022/01/26 05:20:40;;;;;;;;;54.75;44.75;;;;;5.93;60.27;102865.69;2105057;27;47522;-61
2022/01/26 05:21:43;;;;;;;;;43.25;39.25;;;;;5.95;59.79;102863.09;2104840;27;46856;-61
2022/01/26 05:22:44;;;;;;;;;56.80;43.80;;;;;5.95;59.81;102863.09;2104630;27;48036;-60
2022/01/26 05:23:45;;;;;;;;;47.80;40.20;;;;;5.96;60.08;102862.25;2105125;27;48042;-60
2022/01/26 05:24:47;;;;;;;;;53.25;41.50;;;;;5.96;60.03;102857.88;2104269;27;47396;-62
2022/01/26 05:25:48;;;;;;;;;51.40;40.80;;;;;5.96;59.63;102857.88;2104128;27;48259;-62
2022/01/26 05:26:51;;;;;;;;;48.00;39.50;;;;;5.97;60.02;102856.13;2104915;27;46919;-61
2022/01/26 05:27:51;;;;;;;;;51.60;40.80;;;;;5.97;59.95;102856.13;2104859;27;46351;-61
2022/01/26 05:28:52;;;;;;;;;52.00;43.00;;;;;5.98;59.99;102857.94;2098585;27;47290;-61
2022/01/26 05:29:52;;;;;;;;;50.50;39.50;;;;;5.98;59.52;102852.69;2103069;27;48088;-60
2022/01/26 05:30:53;;;;;;;;;40.00;36.00;;;;;6.00;59.66;102862.41;2104638;27;47065;-62
2022/01/26 05:31:53;;;;;;;;;52.75;44.00;;;;;6.00;59.51;102856.25;2104965;27;47487;-60
2022/01/26 05:32:54;;;;;;;;;50.50;39.75;;;;;6.02;59.37;102857.19;2104855;27;46604;-61
2022/01/26 05:33:54;;;;;;;;;47.25;41.75;;;;;6.01;59.51;102856.28;2105004;27;46828;-61
2022/01/26 05:34:55;;;;;;;;;53.25;43.25;;;;;6.01;59.50;102858.94;2104779;27;47134;-64
2022/01/26 05:35:55;;;;;;;;;53.50;45.25;;;;;6.02;59.67;102851.91;2104906;27;48299;-62
2022/01/26 05:36:56;;;;;;;;;53.50;42.50;;;;;6.02;59.48;102852.81;2105264;27;47227;-62
2022/01/26 05:37:56;;;;;;;;;49.25;41.00;;;;;6.03;59.44;102846.69;2099990;27;47094;-63
2022/01/26 05:38:57;;;;;;;;;57.25;44.00;;;;;6.04;59.44;102850.22;2097775;27;46891;-61
2022/01/26 05:39:57;;;;;;;;;53.25;41.25;;;;;6.04;59.50;102843.19;2104917;27;47220;-61
2022/01/26 05:41:01;;;;;;;;;52.25;42.75;;;;;6.05;59.77;102844.97;2104665;27;48028;-62
2022/01/26 05:42:04;;;;;;;;;54.40;44.20;;;;;6.05;59.58;102839.72;2104846;27;48821;-61
2022/01/26 05:43:04;;;;;;;;;54.40;45.20;;;;;6.06;59.63;102844.13;2104909;27;48436;-61
2022/01/26 05:44:07;;;;;;;;;50.75;42.50;;;;;6.06;59.82;102844.13;2105107;27;47286;-61
2022/01/26 05:45:18;;;;;;;;;53.20;42.00;;;;;6.07;59.68;102835.38;2104654;27;47035;-61
2022/01/26 05:46:27;;;;;;;;;54.20;44.40;;;;;6.06;59.30;102836.22;2103793;27;47443;-61
2022/01/26 05:47:28;;;;;;;;;53.60;45.00;;;;;6.06;59.58;102844.13;2101510;27;48301;-61
2022/01/26 05:48:28;;;;;;;;;58.00;43.00;;;;;6.07;59.59;102845.03;2104791;27;47032;-62
2022/01/26 05:49:29;;;;;;;;;57.00;45.00;;;;;6.06;59.16;102841.50;2098891;27;46946;-62
2022/01/26 05:50:31;;;;;;;;;56.00;45.50;;;;;6.07;59.27;102851.19;2101218;27;46959;-62
2022/01/26 05:51:33;;;;;;;;;53.40;41.60;;;;;6.07;59.44;102838.00;2096004;27;48388;-61
2022/01/26 05:52:33;;;;;;;;;58.00;45.80;;;;;6.08;58.94;102839.81;2103837;27;47747;-61
2022/01/26 05:53:35;;;;;;;;;52.75;44.00;;;;;6.08;59.28;102845.06;2103890;27;47099;-60
2022/01/26 05:54:36;;;;;;;;;50.20;39.40;;;;;6.08;59.27;102845.06;2110855;27;47333;-61
2022/01/26 05:55:36;;;;;;;;;52.25;44.75;;;;;6.08;59.41;102847.72;2104355;27;46116;-62
2022/01/26 05:56:37;;;;;;;;;57.50;43.00;;;;;6.08;59.00;102845.06;2105029;27;48309;-61
2022/01/26 05:57:37;;;;;;;;;53.60;43.60;;;;;6.08;59.34;102839.81;2104095;27;47600;-61
2022/01/26 05:58:38;;;;;;;;;54.75;42.75;;;;;6.08;59.18;102834.53;2104384;27;47211;-61
2022/01/26 05:59:38;;;;;;;;;53.00;43.25;;;;;6.07;58.99;102835.38;2104871;27;47091;-61
2022/01/26 06:00:39;;;;;;;;;52.25;42.00;;;;;6.08;59.47;102844.19;2102725;27;48165;-61
2022/01/26 06:01:40;;;;;;;;;55.20;42.20;;;;;6.07;59.23;102843.28;2103477;27;48269;-61
2022/01/26 06:02:41;;;;;;;;;61.75;46.00;;;;;6.09;58.83;102846.84;2099064;27;47164;-61
2022/01/26 06:03:41;;;;;;;;;58.60;43.60;;;;;6.08;59.51;102846.81;2097909;27;47910;-61
2022/01/26 06:04:42;;;;;;;;;54.25;43.25;;;;;6.10;59.62;102850.41;2104889;27;48320;-61
2022/01/26 06:05:42;;;;;;;;;49.75;39.00;;;;;6.11;59.10;102842.56;2104053;27;48334;-61
2022/01/26 06:06:43;;;;;;;;;42.25;37.50;;;;;6.10;59.41;102853.94;2103911;27;47217;-61
2022/01/26 06:07:43;;;;;;;;;49.25;42.25;;;;;6.11;59.11;102854.84;2104609;27;47228;-61
2022/01/26 06:08:44;;;;;;;;;53.25;43.00;;;;;6.11;59.46;102855.75;2104679;27;47347;-61
2022/01/26 06:09:44;;;;;;;;;54.75;44.00;;;;;6.11;59.29;102854.84;2104840;27;48294;-61
2022/01/26 06:10:44;;;;;;;;;54.25;43.75;;;;;6.12;58.94;102854.00;2097703;27;48219;-61
2022/01/26 06:11:45;;;;;;;;;54.00;44.25;;;;;6.11;58.85;102857.47;2099235;27;47454;-61
2022/01/26 06:12:45;;;;;;;;;58.00;48.25;;;;;6.11;58.81;102857.47;2104938;27;48411;-62
2022/01/26 06:13:46;;;;;;;;;54.00;44.75;;;;;6.12;59.08;102851.34;2104919;27;45668;-61
2022/01/26 06:14:46;;;;;;;;;51.00;42.00;;;;;6.13;59.05;102861.06;2104676;27;47100;-61
2022/01/26 06:15:47;;;;;;;;;57.75;46.00;;;;;6.12;59.23;102856.63;2104738;27;47597;-62
2022/01/26 06:16:48;;;;;;;;;53.20;44.40;;;;;6.12;59.10;102859.25;2099988;27;47559;-62
2022/01/26 06:17:48;;;;;;;;;48.50;41.25;;;;;6.11;59.30;102861.00;2104222;27;46915;-62